Foligno, Italy

11:42 AM CET on January 24, 2017 (GMT +0100)
Periferia ovest Sant'Eraclio | | Change Station

Elev 728 ft 42.93 °N, 12.72 °E | Updated 3 seconds ago

Mostly Cloudy
Mostly Cloudy
52.3 °F
Feels Like 52.3 °F
N
0.0
Wind Variable Wind from SW

Today
High -- | Low -- °F
--% Chance of Precip.
Yesterday
High -- | Low -- °F
Precip. -- in
Pressure 29.98 in
Visibility 6.2 miles
Clouds Few 3500 ft
Mostly Cloudy 5000 ft
Dew Point 41 °F
Humidity 66%
Rainfall 0.00 in
Snow Depth Not available.
7:31 AM 5:11 PM
Waning Crescent, 12% visible
METAR LIRZ 240950Z 36009KT 9999 FEW035 BKN050 10/04 Q1015
Pressure 29.98 in
Visibility 6.2 miles
Clouds Few 3500 ft
Mostly Cloudy 5000 ft
Dew Point 41 °F
Humidity 66%
Rainfall 0.00 in
Snow Depth Not available.
7:31 AM 5:11 PM
Waning Crescent, 12% visible
METAR LIRZ 240950Z 36009KT 9999 FEW035 BKN050 10/04 Q1015

Get Your Daily Forecast Email!

Thanks for signing up!

Be on the lookout for a verification email in your inbox.

You'll start receiving the daily forecast at 8 AM.

×

10-Day Weather Forecast

×

Almanac

Astronomy

Jan. 24, 2017 Rise Set
Actual Time
Civil Twilight
Nautical Twilight
Astronomical Twilight
Moon
Length of Visible Light
Length of Day
Tomorrow will be .
, % of the Moon is Illuminated

Today's Extremes

Country Highs Country Lows

Community

WunderPhotos

Upload Photos

1,962,540 photos uploaded!

WunderBlog® & News

Nearby

Air Quality

  Air Quality AQ Index Pollutant
Not available.

Snow Depth

Station Depth Elevation

Earthquake Activity

City Distance Mag. Time & Date
Minimum magnitude displayed is 2.5.

Coastal Water Temperatures

Place Temperature

Stations

Nearby Weather Stations

Station Location Temp. Windchill Dew Point Humidity Wind Precip. Elev Updated Type